createdAt,value
2022-11-02T00:01:50.391Z,8.43
2022-11-02T00:04:36.169Z,8.43
2022-11-02T00:07:22.021Z,5.28
2022-11-02T00:10:09.636Z,8.30
2022-11-02T00:12:56.205Z,12.63
2022-11-02T00:15:42.039Z,10.05
2022-11-02T00:18:29.693Z,4.95
2022-11-02T00:21:18.687Z,8.68
2022-11-02T00:24:06.206Z,6.05
2022-11-02T00:26:53.363Z,4.00
2022-11-02T00:29:39.322Z,7.30
2022-11-02T00:32:25.966Z,6.00
2022-11-02T00:35:12.130Z,5.40
2022-11-02T00:37:58.197Z,8.45
2022-11-02T00:40:44.127Z,6.13
2022-11-02T00:43:30.373Z,3.92
2022-11-02T00:46:17.585Z,4.90
2022-11-02T00:49:04.261Z,6.53
2022-11-02T00:51:53.125Z,4.55
2022-11-02T00:54:39.702Z,9.43
2022-11-02T00:57:26.598Z,8.00
2022-11-02T01:00:14.938Z,5.60
2022-11-02T01:03:01.665Z,2.33
2022-11-02T01:05:47.736Z,3.83
2022-11-02T01:08:34.004Z,3.60
2022-11-02T01:11:22.954Z,5.90
2022-11-02T01:14:12.091Z,6.30
2022-11-02T01:16:58.842Z,4.90
2022-11-02T01:19:45.294Z,4.28
2022-11-02T01:22:31.794Z,8.75
2022-11-02T01:25:17.866Z,6.30
2022-11-02T01:28:04.372Z,4.88
2022-11-02T01:30:51.487Z,9.40
2022-11-02T01:33:45.478Z,7.43
2022-11-02T01:36:31.534Z,3.47
2022-11-02T01:39:17.877Z,6.75
2022-11-02T01:42:04.547Z,5.72
2022-11-02T01:44:50.486Z,5.97
2022-11-02T01:47:40.642Z,10.38
2022-11-02T01:50:27.832Z,6.28
2022-11-02T01:53:17.679Z,6.13
2022-11-02T01:56:05.865Z,5.03
2022-11-02T01:58:57.197Z,11.57
2022-11-02T02:01:43.704Z,4.55
2022-11-02T02:04:30.203Z,5.75
2022-11-02T02:07:17.246Z,6.22
2022-11-02T02:10:04.235Z,8.77
2022-11-02T02:12:52.354Z,4.85
2022-11-02T02:15:58.934Z,10.88
2022-11-02T02:18:49.390Z,4.32
2022-11-02T02:21:54.688Z,6.32
2022-11-02T02:24:47.438Z,8.60
2022-11-02T02:28:00.540Z,7.72
2022-11-02T02:31:00.489Z,6.20
2022-11-02T02:34:09.311Z,7.45
2022-11-02T02:37:06.773Z,7.63
2022-11-02T02:40:24.767Z,9.25
2022-11-02T02:43:37.077Z,12.05
2022-11-02T02:46:38.229Z,8.15
2022-11-02T02:49:48.948Z,8.70
2022-11-02T02:52:37.631Z,10.02
2022-11-02T02:55:29.855Z,8.50
2022-11-02T02:58:27.487Z,10.40
2022-11-02T03:01:15.335Z,11.27
2022-11-02T03:04:01.858Z,5.88
2022-11-02T03:06:52.204Z,7.57
2022-11-02T03:09:45.226Z,9.68
2022-11-02T03:13:04.019Z,10.70
2022-11-02T03:16:07.313Z,6.07
2022-11-02T03:19:04.740Z,6.67
2022-11-02T03:22:00.951Z,9.38
2022-11-02T03:25:00.315Z,4.07
2022-11-02T03:27:56.970Z,6.85
2022-11-02T03:30:51.230Z,9.52
2022-11-02T03:33:48.077Z,9.38
2022-11-02T03:36:51.916Z,8.65
2022-11-02T03:39:54.938Z,7.60
2022-11-02T03:42:42.177Z,9.15
2022-11-02T03:45:35.627Z,9.18
2022-11-02T03:48:26.929Z,7.47
2022-11-02T03:51:18.009Z,8.23
2022-11-02T03:54:22.022Z,6.38
2022-11-02T03:57:10.514Z,13.70
2022-11-02T04:00:11.331Z,13.70
2022-11-02T04:03:13.141Z,9.18
2022-11-02T04:06:02.688Z,9.80
2022-11-02T04:08:52.325Z,12.63
2022-11-02T04:11:58.650Z,11.67
2022-11-02T04:14:49.966Z,11.15
2022-11-02T04:17:57.175Z,6.72
2022-11-02T04:20:43.930Z,12.30
2022-11-02T04:23:48.429Z,13.00
2022-11-02T04:29:20.897Z,10.05
2022-11-02T04:32:07.638Z,14.55
2022-11-02T04:34:53.816Z,11.45
2022-11-02T04:38:13.650Z,11.45
2022-11-02T04:41:19.070Z,13.10
2022-11-02T04:44:10.358Z,12.90
2022-11-02T04:46:57.635Z,12.00
2022-11-02T04:49:46.723Z,11.52
2022-11-02T04:52:36.540Z,9.25
2022-11-02T04:55:22.818Z,13.52
2022-11-02T04:58:09.146Z,6.60
2022-11-02T05:00:56.157Z,13.57
2022-11-02T05:03:42.815Z,12.30
2022-11-02T05:06:29.303Z,9.38
2022-11-02T05:09:16.339Z,7.18
2022-11-02T05:12:06.842Z,13.60
2022-11-02T05:14:53.325Z,9.85
2022-11-02T05:17:39.292Z,9.63
2022-11-02T05:20:25.387Z,16.58
2022-11-02T05:23:12.834Z,15.38
2022-11-02T05:26:01.313Z,8.02
2022-11-02T05:28:50.642Z,8.82
2022-11-02T05:31:37.041Z,11.68
2022-11-02T05:34:22.786Z,6.72
2022-11-02T05:37:09.201Z,7.40
2022-11-02T05:39:58.810Z,10.65
2022-11-02T05:42:47.322Z,12.27
2022-11-02T05:45:33.693Z,13.18
2022-11-02T05:48:20.311Z,5.65
2022-11-02T05:51:07.049Z,9.27
2022-11-02T05:53:53.928Z,8.30
2022-11-02T05:56:40.836Z,6.22
2022-11-02T05:59:26.853Z,9.85
2022-11-02T06:02:12.830Z,11.60
2022-11-02T06:04:59.520Z,9.35
2022-11-02T06:07:45.761Z,9.50
2022-11-02T06:10:31.666Z,8.13
2022-11-02T06:13:17.655Z,10.02
2022-11-02T06:16:05.799Z,8.50
2022-11-02T06:18:51.750Z,15.13
2022-11-02T06:21:37.972Z,11.50
2022-11-02T06:24:26.577Z,13.63
2022-11-02T06:27:12.582Z,15.25
2022-11-02T06:29:58.789Z,12.77
2022-11-02T06:32:53.145Z,14.68
2022-11-02T06:38:26.126Z,14.68
2022-11-02T06:41:12.154Z,13.50
2022-11-02T06:43:58.709Z,8.15
2022-11-02T06:46:44.733Z,11.48
2022-11-02T06:49:31.062Z,19.10
2022-11-02T06:52:18.105Z,5.78
2022-11-02T06:55:04.975Z,8.95
2022-11-02T06:57:51.411Z,15.88
2022-11-02T07:00:37.868Z,12.55
2022-11-02T07:03:24.137Z,9.93
2022-11-02T07:06:14.191Z,11.48
2022-11-02T07:09:00.861Z,12.00
2022-11-02T07:11:46.794Z,10.48
2022-11-02T07:14:33.070Z,10.60
2022-11-02T07:17:19.211Z,14.65
2022-11-02T07:20:06.031Z,10.13
2022-11-02T07:22:57.492Z,14.27
2022-11-02T07:25:44.552Z,9.70
2022-11-02T07:28:31.239Z,12.55
2022-11-02T07:31:17.083Z,11.00
2022-11-02T07:34:04.029Z,8.73
2022-11-02T07:36:49.888Z,10.82
2022-11-02T07:39:35.889Z,9.38
2022-11-02T07:42:23.314Z,8.90
2022-11-02T07:45:10.685Z,10.40
2022-11-02T07:47:57.260Z,15.10
2022-11-02T07:50:43.226Z,9.93
2022-11-02T07:53:28.991Z,8.75
2022-11-02T07:56:15.206Z,13.82
2022-11-02T07:59:01.501Z,6.35
2022-11-02T08:01:47.351Z,8.80
2022-11-02T08:04:38.421Z,12.15
2022-11-02T08:07:27.020Z,16.88
2022-11-02T08:10:13.075Z,13.95
2022-11-02T08:13:02.362Z,12.40
2022-11-02T08:15:53.646Z,10.70
2022-11-02T08:18:41.079Z,12.05
2022-11-02T08:21:27.436Z,9.75
2022-11-02T08:24:14.379Z,14.55
2022-11-02T08:27:00.994Z,20.73
2022-11-02T08:29:47.859Z,12.07
2022-11-02T08:32:33.769Z,13.32
2022-11-02T08:35:20.569Z,14.75
2022-11-02T08:38:08.106Z,14.82
2022-11-02T08:40:55.331Z,18.50
2022-11-02T08:43:50.207Z,11.85
2022-11-02T08:46:36.965Z,11.65
2022-11-02T08:49:23.635Z,15.20
2022-11-02T08:52:10.078Z,8.50
2022-11-02T08:54:56.006Z,13.30
2022-11-02T08:57:53.406Z,10.25
2022-11-02T09:00:39.849Z,10.27
2022-11-02T09:03:27.456Z,16.15
2022-11-02T09:06:13.586Z,15.73
2022-11-02T09:08:59.681Z,16.60
2022-11-02T09:11:46.455Z,10.18
2022-11-02T09:14:32.386Z,20.25
2022-11-02T09:17:18.874Z,17.15
2022-11-02T09:20:06.212Z,17.17
2022-11-02T09:22:52.796Z,13.60
2022-11-02T09:25:38.900Z,10.77
2022-11-02T09:28:24.943Z,18.73
2022-11-02T09:31:11.925Z,15.77
2022-11-02T09:33:58.208Z,13.43
2022-11-02T09:36:44.555Z,12.35
2022-11-02T09:39:30.690Z,10.88
2022-11-02T09:42:28.011Z,13.40
2022-11-02T09:45:18.792Z,12.93
2022-11-02T09:48:26.793Z,14.50
2022-11-02T09:51:16.188Z,14.90
2022-11-02T09:54:14.634Z,8.82
2022-11-02T09:57:09.174Z,11.77
2022-11-02T09:59:57.149Z,11.40
2022-11-02T10:02:43.606Z,16.38
2022-11-02T10:05:33.916Z,13.07
2022-11-02T10:08:32.091Z,16.58
2022-11-02T10:11:25.522Z,11.32
2022-11-02T10:14:35.196Z,12.05
2022-11-02T10:17:36.966Z,18.02
2022-11-02T10:20:27.558Z,10.07
2022-11-02T10:23:47.586Z,10.07
2022-11-02T10:26:37.121Z,9.10
2022-11-02T10:29:46.775Z,18.35
2022-11-02T10:32:36.145Z,14.80
2022-11-02T10:36:04.694Z,13.02
2022-11-02T10:38:58.747Z,21.15
2022-11-02T10:42:00.397Z,11.65
2022-11-02T10:45:04.649Z,14.40
2022-11-02T10:51:04.934Z,12.02
2022-11-02T10:53:52.990Z,19.90
2022-11-02T10:56:40.983Z,20.42
2022-11-02T10:59:27.168Z,16.05
2022-11-02T11:02:14.689Z,9.88
2022-11-02T11:05:14.245Z,12.93
2022-11-02T11:08:03.709Z,10.25
2022-11-02T11:10:52.682Z,11.70
2022-11-02T11:20:26.371Z,7.80
2022-11-02T11:23:15.610Z,14.93
2022-11-02T11:26:26.257Z,12.18
2022-11-02T11:29:33.570Z,20.88
2022-11-02T11:32:30.478Z,14.68
2022-11-02T11:35:19.077Z,15.48
2022-11-02T11:38:20.855Z,17.23
2022-11-02T11:41:12.591Z,12.20
2022-11-02T11:43:58.891Z,14.52
2022-11-02T11:46:57.518Z,11.15
2022-11-02T11:53:24.008Z,16.83
2022-11-02T11:56:33.510Z,15.63
2022-11-02T11:59:23.466Z,12.90
2022-11-02T12:02:24.249Z,13.40
2022-11-02T12:05:15.277Z,14.45
2022-11-02T12:08:10.593Z,11.27
2022-11-02T12:11:25.417Z,15.77
2022-11-02T12:14:33.709Z,18.17
2022-11-02T12:17:25.686Z,13.88
2022-11-02T12:20:45.374Z,15.30
2022-11-02T12:24:12.963Z,13.52
2022-11-02T12:27:03.938Z,13.23
2022-11-02T12:30:14.411Z,6.47
2022-11-02T12:33:05.850Z,15.18
2022-11-02T12:36:42.356Z,14.57
2022-11-02T12:40:03.806Z,13.70
2022-11-02T12:43:27.955Z,11.82
2022-11-02T12:46:26.441Z,13.65
2022-11-02T12:49:38.457Z,20.85
2022-11-02T12:53:06.278Z,14.43
2022-11-02T12:55:56.794Z,16.23
2022-11-02T12:58:44.378Z,18.10
2022-11-02T13:01:41.090Z,17.35
2022-11-02T13:04:39.628Z,14.65
2022-11-02T13:07:49.850Z,13.25
2022-11-02T13:10:48.214Z,12.13
2022-11-02T13:13:49.795Z,13.10
2022-11-02T13:16:53.397Z,10.55
2022-11-02T13:19:49.965Z,16.98
2022-11-02T13:22:40.914Z,21.15
2022-11-02T13:25:32.955Z,17.13
2022-11-02T13:28:34.103Z,13.32
2022-11-02T13:31:40.335Z,10.05
2022-11-02T13:34:38.844Z,16.33
2022-11-02T13:37:36.099Z,17.25
2022-11-02T13:40:35.720Z,18.85
2022-11-02T13:43:34.282Z,15.18
2022-11-02T13:46:35.252Z,19.52
2022-11-02T13:49:34.521Z,17.05
2022-11-02T13:52:29.378Z,22.00
2022-11-02T13:55:25.950Z,16.70
2022-11-02T13:58:27.389Z,19.63
2022-11-02T14:01:17.342Z,17.33
2022-11-02T14:04:15.214Z,19.15
2022-11-02T14:07:03.841Z,17.25
2022-11-02T14:09:50.733Z,15.75
2022-11-02T14:12:48.028Z,16.27
2022-11-02T14:15:34.161Z,18.60
2022-11-02T14:18:30.727Z,19.27
2022-11-02T14:21:40.332Z,13.60
2022-11-02T14:24:51.182Z,16.05
2022-11-02T14:27:38.879Z,24.70
2022-11-02T14:30:42.883Z,19.80
2022-11-02T14:33:38.055Z,13.82
2022-11-02T14:36:45.257Z,19.40
2022-11-02T14:40:26.055Z,17.05
2022-11-02T14:43:33.612Z,13.10
2022-11-02T14:46:36.468Z,12.98
2022-11-02T14:49:45.847Z,19.98
2022-11-02T14:52:36.451Z,15.65
2022-11-02T14:55:24.020Z,25.02
2022-11-02T14:58:20.229Z,25.10
2022-11-02T15:01:12.312Z,18.00
2022-11-02T15:03:58.609Z,20.02
2022-11-02T15:06:55.194Z,14.77
2022-11-02T15:10:01.788Z,14.05
2022-11-02T15:12:50.404Z,16.40
2022-11-02T15:15:36.966Z,17.75
2022-11-02T15:18:32.861Z,23.55
2022-11-02T15:21:19.116Z,16.25
2022-11-02T15:24:18.714Z,15.80
2022-11-02T15:27:07.197Z,20.05
2022-11-02T15:29:53.534Z,14.10
2022-11-02T15:32:45.540Z,15.95
2022-11-02T15:35:38.058Z,19.33
2022-11-02T15:38:33.881Z,23.10
2022-11-02T15:41:29.000Z,13.77
2022-11-02T15:45:05.418Z,12.57
2022-11-02T15:48:23.908Z,17.60
2022-11-02T15:51:25.631Z,20.00
2022-11-02T15:54:46.421Z,17.40
2022-11-02T15:57:42.778Z,17.95
2022-11-02T16:00:31.815Z,16.48
2022-11-02T16:03:18.132Z,18.83
2022-11-02T16:06:10.324Z,16.83
2022-11-02T16:09:06.524Z,16.55
2022-11-02T16:12:16.766Z,12.30
2022-11-02T16:15:17.422Z,20.10
2022-11-02T16:18:03.998Z,18.75
2022-11-02T16:20:51.009Z,19.27
2022-11-02T16:23:40.599Z,19.83
2022-11-02T16:26:29.706Z,20.50
2022-11-02T16:29:31.406Z,17.75
2022-11-02T16:32:17.781Z,13.98
2022-11-02T16:35:04.442Z,15.60
2022-11-02T16:37:50.970Z,19.52
2022-11-02T16:40:37.256Z,18.58
2022-11-02T16:43:26.068Z,25.48
2022-11-02T16:46:17.149Z,14.25
2022-11-02T16:49:19.597Z,21.40
2022-11-02T16:52:32.857Z,16.88
2022-11-02T16:55:39.503Z,20.08
2022-11-02T16:58:25.494Z,24.10
2022-11-02T17:01:22.848Z,21.48
2022-11-02T17:04:25.059Z,20.52
2022-11-02T17:07:22.223Z,18.70
2022-11-02T17:10:18.160Z,17.25
2022-11-02T17:13:21.352Z,14.32
2022-11-02T17:16:12.052Z,17.63
2022-11-02T17:19:05.912Z,13.45
2022-11-02T17:22:15.514Z,18.35
2022-11-02T17:25:11.563Z,15.25
2022-11-02T17:28:06.687Z,17.85
2022-11-02T17:30:53.127Z,18.67
2022-11-02T17:33:44.130Z,18.73
2022-11-02T17:36:30.466Z,11.73
2022-11-02T17:39:22.185Z,11.73
2022-11-02T17:42:35.140Z,13.20
2022-11-02T17:45:29.429Z,15.52
2022-11-02T17:48:15.680Z,13.98
2022-11-02T17:51:01.843Z,16.42
2022-11-02T17:53:49.847Z,16.55
2022-11-02T17:56:35.593Z,19.63
2022-11-02T17:59:21.460Z,10.57
2022-11-02T18:02:15.222Z,12.70
2022-11-02T18:05:01.478Z,16.08
2022-11-02T18:07:47.353Z,17.80
2022-11-02T18:10:41.102Z,24.52
2022-11-02T18:13:27.183Z,15.98
2022-11-02T18:16:13.466Z,14.48
2022-11-02T18:18:59.900Z,17.23
2022-11-02T18:21:46.029Z,13.80
2022-11-02T18:24:31.995Z,13.40
2022-11-02T18:27:17.814Z,11.95
2022-11-02T18:30:06.541Z,16.13
2022-11-02T18:32:55.059Z,22.13
2022-11-02T18:35:42.515Z,18.92
2022-11-02T18:38:28.661Z,22.40
2022-11-02T18:41:30.935Z,13.55
2022-11-02T18:44:17.474Z,16.05
2022-11-02T18:47:04.783Z,14.23
2022-11-02T18:49:54.265Z,16.05
2022-11-02T18:52:44.023Z,11.32
2022-11-02T18:55:33.472Z,12.60
2022-11-02T18:58:19.631Z,22.25
2022-11-02T19:01:10.890Z,20.05
2022-11-02T19:04:00.370Z,18.30
2022-11-02T19:07:05.589Z,26.77
2022-11-02T19:09:52.339Z,15.77
2022-11-02T19:12:38.813Z,18.00
2022-11-02T19:15:25.016Z,19.42
2022-11-02T19:18:11.206Z,18.65
2022-11-02T19:20:58.061Z,17.10
2022-11-02T19:23:44.377Z,18.92
2022-11-02T19:26:30.329Z,18.55
2022-11-02T19:29:16.818Z,18.50
2022-11-02T19:32:05.868Z,23.77
2022-11-02T19:34:52.234Z,16.23
2022-11-02T19:37:38.241Z,25.75
2022-11-02T19:40:24.671Z,20.33
2022-11-02T19:43:12.693Z,25.02
2022-11-02T19:46:01.122Z,17.67
2022-11-02T19:48:47.800Z,24.45
2022-11-02T19:51:34.050Z,19.80
2022-11-02T19:54:20.805Z,14.50
2022-11-02T19:57:06.970Z,13.48
2022-11-02T19:59:52.779Z,14.45
2022-11-02T20:02:38.734Z,14.32
2022-11-02T20:05:24.517Z,20.20
2022-11-02T20:08:10.670Z,13.32
2022-11-02T20:11:10.173Z,22.83
2022-11-02T20:14:05.793Z,13.98
2022-11-02T20:17:04.260Z,21.27
2022-11-02T20:19:56.969Z,18.33
2022-11-02T20:22:43.176Z,18.42
2022-11-02T20:25:29.835Z,18.65
2022-11-02T20:28:15.958Z,19.88
2022-11-02T20:31:09.363Z,21.83
2022-11-02T20:33:56.282Z,21.77
2022-11-02T20:36:42.812Z,20.73
2022-11-02T20:39:31.320Z,23.85
2022-11-02T20:42:17.709Z,23.73
2022-11-02T20:45:03.955Z,30.88
2022-11-02T20:47:51.818Z,21.20
2022-11-02T20:50:37.809Z,17.58
2022-11-02T20:53:24.283Z,20.42
2022-11-02T20:56:10.772Z,16.73
2022-11-02T20:58:57.218Z,14.43
2022-11-02T21:01:43.301Z,22.58
2022-11-02T21:04:29.592Z,19.13
2022-11-02T21:07:15.880Z,25.70
2022-11-02T21:10:03.106Z,23.23
2022-11-02T21:13:08.161Z,24.15
2022-11-02T21:15:54.650Z,24.75
2022-11-02T21:18:41.486Z,21.27
2022-11-02T21:21:27.533Z,21.98
2022-11-02T21:24:14.059Z,25.70
2022-11-02T21:27:00.297Z,20.45
2022-11-02T21:29:46.562Z,18.02
2022-11-02T21:32:36.638Z,20.95
2022-11-02T21:35:26.298Z,20.10
2022-11-02T21:38:19.299Z,18.20
2022-11-02T21:41:10.305Z,17.98
2022-11-02T21:43:57.010Z,24.63
2022-11-02T21:46:43.068Z,18.33
2022-11-02T21:49:29.710Z,19.92
2022-11-02T21:52:16.102Z,29.45
2022-11-02T21:55:05.628Z,24.30
2022-11-02T21:57:53.643Z,16.67
2022-11-02T22:00:58.734Z,19.65
2022-11-02T22:03:45.864Z,13.50
2022-11-02T22:06:32.494Z,16.60
2022-11-02T22:09:18.724Z,17.77
2022-11-02T22:12:25.773Z,18.08
2022-11-02T22:15:12.503Z,17.52
2022-11-02T22:17:58.765Z,16.92
2022-11-02T22:20:53.867Z,22.52
2022-11-02T22:23:40.517Z,20.95
2022-11-02T22:26:28.895Z,14.55
2022-11-02T22:29:14.995Z,20.52
2022-11-02T22:32:00.887Z,18.00
2022-11-02T22:34:47.905Z,22.98
2022-11-02T22:37:52.279Z,14.35
2022-11-02T22:40:38.809Z,16.85
2022-11-02T22:43:24.785Z,20.45
2022-11-02T22:46:10.995Z,21.88
2022-11-02T22:48:59.177Z,13.98
2022-11-02T22:51:49.625Z,13.40
2022-11-02T22:54:35.577Z,16.13
2022-11-02T22:57:21.339Z,14.40
2022-11-02T23:00:07.935Z,11.00
2022-11-02T23:02:54.051Z,13.85
2022-11-02T23:05:39.834Z,10.68
2022-11-02T23:11:21.451Z,11.32
2022-11-02T23:14:10.238Z,9.65
2022-11-02T23:16:56.801Z,12.93
2022-11-02T23:19:43.971Z,11.23
2022-11-02T23:22:32.860Z,14.60
2022-11-02T23:25:19.326Z,13.38
2022-11-02T23:31:29.080Z,13.48
2022-11-02T23:34:14.914Z,13.82
2022-11-02T23:37:01.074Z,15.02
2022-11-02T23:39:50.201Z,21.00
2022-11-02T23:42:36.664Z,10.05
2022-11-02T23:45:23.777Z,13.48
2022-11-02T23:48:10.236Z,12.20
2022-11-02T23:51:16.169Z,15.70
2022-11-02T23:54:20.593Z,12.60
2022-11-02T23:57:06.808Z,11.60
2022-11-02T23:59:52.799Z,19.67
